sensor_id;sensor_type;location;lat;lon;timestamp;P1;durP1;ratioP1;P2;durP2;ratioP2
53072;SDS011;38955;48.916;2.336;2024-01-15T00:01:51;21.80;;;14.40;;
53072;SDS011;38955;48.916;2.336;2024-01-15T00:03:53;25.40;;;18.38;;
53072;SDS011;38955;48.916;2.336;2024-01-15T00:05:55;24.50;;;17.38;;
53072;SDS011;38955;48.916;2.336;2024-01-15T00:07:57;24.55;;;17.10;;
53072;SDS011;38955;48.916;2.336;2024-01-15T00:10:00;23.70;;;17.13;;
53072;SDS011;38955;48.916;2.336;2024-01-15T00:12:03;23.35;;;16.48;;
53072;SDS011;38955;48.916;2.336;2024-01-15T00:14:05;22.02;;;15.77;;
53072;SDS011;38955;48.916;2.336;2024-01-15T00:16:07;22.08;;;16.63;;
53072;SDS011;38955;48.916;2.336;2024-01-15T00:18:11;22.05;;;15.32;;
53072;SDS011;38955;48.916;2.336;2024-01-15T00:20:13;16.37;;;12.03;;
53072;SDS011;38955;48.916;2.336;2024-01-15T00:22:15;24.23;;;16.58;;
53072;SDS011;38955;48.916;2.336;2024-01-15T00:24:17;21.58;;;15.68;;
53072;SDS011;38955;48.916;2.336;2024-01-15T00:26:20;26.42;;;16.92;;
53072;SDS011;38955;48.916;2.336;2024-01-15T00:28:23;24.55;;;16.73;;
53072;SDS011;38955;48.916;2.336;2024-01-15T00:30:25;23.00;;;16.85;;
53072;SDS011;38955;48.916;2.336;2024-01-15T00:32:27;25.08;;;15.48;;
53072;SDS011;38955;48.916;2.336;2024-01-15T00:34:31;21.88;;;16.33;;
53072;SDS011;38955;48.916;2.336;2024-01-15T00:36:33;21.85;;;15.48;;
53072;SDS011;38955;48.916;2.336;2024-01-15T00:38:35;22.52;;;15.88;;
53072;SDS011;38955;48.916;2.336;2024-01-15T00:40:37;24.17;;;16.35;;
53072;SDS011;38955;48.916;2.336;2024-01-15T00:42:39;22.38;;;15.32;;
53072;SDS011;38955;48.916;2.336;2024-01-15T00:44:42;21.50;;;15.07;;
53072;SDS011;38955;48.916;2.336;2024-01-15T00:46:45;25.45;;;16.13;;
53072;SDS011;38955;48.916;2.336;2024-01-15T00:48:48;22.40;;;15.45;;
53072;SDS011;38955;48.916;2.336;2024-01-15T00:50:51;22.40;;;15.13;;
53072;SDS011;38955;48.916;2.336;2024-01-15T00:52:55;22.27;;;15.95;;
53072;SDS011;38955;48.916;2.336;2024-01-15T00:54:58;26.20;;;17.80;;
53072;SDS011;38955;48.916;2.336;2024-01-15T00:57:00;21.83;;;15.57;;
53072;SDS011;38955;48.916;2.336;2024-01-15T00:59:02;27.52;;;15.88;;
53072;SDS011;38955;48.916;2.336;2024-01-15T01:01:04;21.58;;;15.18;;
53072;SDS011;38955;48.916;2.336;2024-01-15T01:03:06;20.92;;;15.50;;
53072;SDS011;38955;48.916;2.336;2024-01-15T01:05:09;19.42;;;14.73;;
53072;SDS011;38955;48.916;2.336;2024-01-15T01:07:12;22.08;;;14.90;;
53072;SDS011;38955;48.916;2.336;2024-01-15T01:09:14;24.63;;;15.93;;
53072;SDS011;38955;48.916;2.336;2024-01-15T01:11:17;22.75;;;14.95;;
53072;SDS011;38955;48.916;2.336;2024-01-15T01:13:19;25.38;;;17.35;;
53072;SDS011;38955;48.916;2.336;2024-01-15T01:15:21;20.63;;;14.95;;
53072;SDS011;38955;48.916;2.336;2024-01-15T01:17:24;26.15;;;15.85;;
53072;SDS011;38955;48.916;2.336;2024-01-15T01:19:27;17.70;;;13.68;;
53072;SDS011;38955;48.916;2.336;2024-01-15T01:21:29;21.42;;;15.48;;
53072;SDS011;38955;48.916;2.336;2024-01-15T01:23:35;23.27;;;15.68;;
53072;SDS011;38955;48.916;2.336;2024-01-15T01:25:37;27.75;;;15.70;;
53072;SDS011;38955;48.916;2.336;2024-01-15T01:27:40;20.35;;;14.85;;
53072;SDS011;38955;48.916;2.336;2024-01-15T01:29:42;24.10;;;17.55;;
53072;SDS011;38955;48.916;2.336;2024-01-15T01:31:45;22.63;;;16.10;;
53072;SDS011;38955;48.916;2.336;2024-01-15T01:33:48;25.02;;;17.30;;
53072;SDS011;38955;48.916;2.336;2024-01-15T01:35:50;22.42;;;16.17;;
53072;SDS011;38955;48.916;2.336;2024-01-15T01:37:52;20.05;;;13.73;;
53072;SDS011;38955;48.916;2.336;2024-01-15T01:39:55;23.63;;;16.30;;
53072;SDS011;38955;48.916;2.336;2024-01-15T01:41:57;20.25;;;15.02;;
53072;SDS011;38955;48.916;2.336;2024-01-15T01:43:59;20.73;;;14.07;;
53072;SDS011;38955;48.916;2.336;2024-01-15T01:46:02;24.08;;;16.30;;
53072;SDS011;38955;48.916;2.336;2024-01-15T01:48:05;21.10;;;15.10;;
53072;SDS011;38955;48.916;2.336;2024-01-15T01:50:08;25.10;;;16.60;;
53072;SDS011;38955;48.916;2.336;2024-01-15T01:52:10;18.02;;;13.43;;
53072;SDS011;38955;48.916;2.336;2024-01-15T01:54:12;19.95;;;14.45;;
53072;SDS011;38955;48.916;2.336;2024-01-15T01:56:16;24.95;;;15.98;;
53072;SDS011;38955;48.916;2.336;2024-01-15T01:58:19;21.75;;;15.10;;
53072;SDS011;38955;48.916;2.336;2024-01-15T02:00:21;21.60;;;15.57;;
53072;SDS011;38955;48.916;2.336;2024-01-15T02:02:24;21.95;;;14.82;;
53072;SDS011;38955;48.916;2.336;2024-01-15T02:04:27;19.70;;;13.68;;
53072;SDS011;38955;48.916;2.336;2024-01-15T02:06:29;22.50;;;15.52;;
53072;SDS011;38955;48.916;2.336;2024-01-15T02:08:32;22.33;;;14.30;;
53072;SDS011;38955;48.916;2.336;2024-01-15T02:10:34;21.73;;;15.00;;
53072;SDS011;38955;48.916;2.336;2024-01-15T02:12:38;20.80;;;14.60;;
53072;SDS011;38955;48.916;2.336;2024-01-15T02:14:40;18.58;;;13.57;;
53072;SDS011;38955;48.916;2.336;2024-01-15T02:16:43;22.23;;;15.20;;
53072;SDS011;38955;48.916;2.336;2024-01-15T02:18:45;23.38;;;15.60;;
53072;SDS011;38955;48.916;2.336;2024-01-15T02:20:48;23.88;;;15.07;;
53072;SDS011;38955;48.916;2.336;2024-01-15T02:22:50;23.45;;;14.57;;
53072;SDS011;38955;48.916;2.336;2024-01-15T02:24:55;20.00;;;14.65;;
53072;SDS011;38955;48.916;2.336;2024-01-15T02:26:57;14.35;;;9.48;;
53072;SDS011;38955;48.916;2.336;2024-01-15T02:28:59;17.90;;;13.30;;
53072;SDS011;38955;48.916;2.336;2024-01-15T02:31:02;19.60;;;13.70;;
53072;SDS011;38955;48.916;2.336;2024-01-15T02:33:04;20.92;;;14.98;;
53072;SDS011;38955;48.916;2.336;2024-01-15T02:35:06;22.13;;;15.07;;
53072;SDS011;38955;48.916;2.336;2024-01-15T02:37:09;19.85;;;14.23;;
53072;SDS011;38955;48.916;2.336;2024-01-15T02:39:11;22.65;;;14.98;;
53072;SDS011;38955;48.916;2.336;2024-01-15T02:41:14;20.27;;;14.57;;
53072;SDS011;38955;48.916;2.336;2024-01-15T02:43:16;20.67;;;14.88;;
53072;SDS011;38955;48.916;2.336;2024-01-15T02:45:20;21.83;;;15.15;;
53072;SDS011;38955;48.916;2.336;2024-01-15T02:47:22;21.45;;;14.65;;
53072;SDS011;38955;48.916;2.336;2024-01-15T02:49:24;17.58;;;13.02;;
53072;SDS011;38955;48.916;2.336;2024-01-15T02:51:27;21.48;;;15.65;;
53072;SDS011;38955;48.916;2.336;2024-01-15T02:53:29;19.23;;;14.77;;
53072;SDS011;38955;48.916;2.336;2024-01-15T02:55:32;20.50;;;15.00;;
53072;SDS011;38955;48.916;2.336;2024-01-15T02:57:35;22.63;;;15.20;;
53072;SDS011;38955;48.916;2.336;2024-01-15T02:59:37;21.67;;;14.27;;
53072;SDS011;38955;48.916;2.336;2024-01-15T03:01:39;20.45;;;14.60;;
53072;SDS011;38955;48.916;2.336;2024-01-15T03:03:41;22.38;;;15.70;;
53072;SDS011;38955;48.916;2.336;2024-01-15T03:05:44;21.23;;;15.85;;
53072;SDS011;38955;48.916;2.336;2024-01-15T03:07:48;21.00;;;14.95;;
53072;SDS011;38955;48.916;2.336;2024-01-15T03:09:50;19.17;;;13.18;;
53072;SDS011;38955;48.916;2.336;2024-01-15T03:11:52;21.45;;;15.13;;
53072;SDS011;38955;48.916;2.336;2024-01-15T03:13:56;19.52;;;13.52;;
53072;SDS011;38955;48.916;2.336;2024-01-15T03:16:04;22.75;;;15.88;;
53072;SDS011;38955;48.916;2.336;2024-01-15T03:18:06;22.65;;;15.38;;
53072;SDS011;38955;48.916;2.336;2024-01-15T03:20:08;16.98;;;13.10;;
53072;SDS011;38955;48.916;2.336;2024-01-15T03:22:11;20.02;;;13.57;;
53072;SDS011;38955;48.916;2.336;2024-01-15T03:24:14;17.23;;;13.05;;
53072;SDS011;38955;48.916;2.336;2024-01-15T03:26:17;18.58;;;13.90;;
53072;SDS011;38955;48.916;2.336;2024-01-15T03:28:19;21.98;;;15.05;;
53072;SDS011;38955;48.916;2.336;2024-01-15T03:30:22;21.30;;;15.05;;
53072;SDS011;38955;48.916;2.336;2024-01-15T03:32:24;21.23;;;14.65;;
53072;SDS011;38955;48.916;2.336;2024-01-15T03:34:26;19.73;;;13.77;;
53072;SDS011;38955;48.916;2.336;2024-01-15T03:36:28;20.25;;;13.65;;
53072;SDS011;38955;48.916;2.336;2024-01-15T03:38:30;21.02;;;14.15;;
53072;SDS011;38955;48.916;2.336;2024-01-15T03:40:33;19.52;;;13.43;;
53072;SDS011;38955;48.916;2.336;2024-01-15T03:42:35;22.30;;;14.45;;
53072;SDS011;38955;48.916;2.336;2024-01-15T03:44:37;22.05;;;15.02;;
53072;SDS011;38955;48.916;2.336;2024-01-15T03:46:40;20.45;;;13.40;;
53072;SDS011;38955;48.916;2.336;2024-01-15T03:48:43;19.88;;;14.07;;
53072;SDS011;38955;48.916;2.336;2024-01-15T03:50:45;18.42;;;14.32;;
53072;SDS011;38955;48.916;2.336;2024-01-15T03:52:47;20.40;;;14.55;;
53072;SDS011;38955;48.916;2.336;2024-01-15T03:54:50;18.70;;;14.85;;
53072;SDS011;38955;48.916;2.336;2024-01-15T03:56:53;22.25;;;15.70;;
53072;SDS011;38955;48.916;2.336;2024-01-15T03:58:55;17.30;;;13.15;;
53072;SDS011;38955;48.916;2.336;2024-01-15T04:00:57;20.88;;;13.80;;
53072;SDS011;38955;48.916;2.336;2024-01-15T04:03:01;20.20;;;14.60;;
53072;SDS011;38955;48.916;2.336;2024-01-15T04:05:03;19.75;;;13.18;;
53072;SDS011;38955;48.916;2.336;2024-01-15T04:07:06;24.83;;;15.35;;
53072;SDS011;38955;48.916;2.336;2024-01-15T04:09:08;20.27;;;13.25;;
53072;SDS011;38955;48.916;2.336;2024-01-15T04:11:10;22.98;;;14.80;;
53072;SDS011;38955;48.916;2.336;2024-01-15T04:13:13;22.00;;;14.48;;
53072;SDS011;38955;48.916;2.336;2024-01-15T04:15:15;23.17;;;14.77;;
53072;SDS011;38955;48.916;2.336;2024-01-15T04:17:17;19.23;;;13.75;;
53072;SDS011;38955;48.916;2.336;2024-01-15T04:19:21;19.00;;;14.45;;
53072;SDS011;38955;48.916;2.336;2024-01-15T04:21:23;22.33;;;14.85;;
53072;SDS011;38955;48.916;2.336;2024-01-15T04:23:25;18.75;;;13.23;;
53072;SDS011;38955;48.916;2.336;2024-01-15T04:25:27;19.75;;;14.32;;
53072;SDS011;38955;48.916;2.336;2024-01-15T04:27:29;21.17;;;14.88;;
53072;SDS011;38955;48.916;2.336;2024-01-15T04:29:31;19.88;;;13.88;;
53072;SDS011;38955;48.916;2.336;2024-01-15T04:31:36;19.85;;;14.25;;
53072;SDS011;38955;48.916;2.336;2024-01-15T04:33:38;20.60;;;15.57;;
53072;SDS011;38955;48.916;2.336;2024-01-15T04:35:43;21.25;;;14.45;;
53072;SDS011;38955;48.916;2.336;2024-01-15T04:37:45;18.55;;;13.20;;
53072;SDS011;38955;48.916;2.336;2024-01-15T04:39:47;20.00;;;14.40;;
53072;SDS011;38955;48.916;2.336;2024-01-15T04:41:50;17.25;;;12.38;;
53072;SDS011;38955;48.916;2.336;2024-01-15T04:43:52;17.77;;;13.30;;
53072;SDS011;38955;48.916;2.336;2024-01-15T04:45:54;16.80;;;12.43;;
53072;SDS011;38955;48.916;2.336;2024-01-15T04:47:56;16.77;;;12.35;;
53072;SDS011;38955;48.916;2.336;2024-01-15T04:49:59;18.52;;;13.55;;
53072;SDS011;38955;48.916;2.336;2024-01-15T04:52:03;18.27;;;13.30;;
53072;SDS011;38955;48.916;2.336;2024-01-15T04:54:05;18.98;;;14.18;;
53072;SDS011;38955;48.916;2.336;2024-01-15T04:56:07;16.52;;;12.30;;
53072;SDS011;38955;48.916;2.336;2024-01-15T04:58:09;15.35;;;11.48;;
53072;SDS011;38955;48.916;2.336;2024-01-15T05:00:12;18.23;;;13.20;;
53072;SDS011;38955;48.916;2.336;2024-01-15T05:02:16;21.23;;;14.30;;
53072;SDS011;38955;48.916;2.336;2024-01-15T05:04:18;21.33;;;13.40;;
53072;SDS011;38955;48.916;2.336;2024-01-15T05:06:20;18.38;;;12.98;;
53072;SDS011;38955;48.916;2.336;2024-01-15T05:08:24;18.48;;;12.85;;
53072;SDS011;38955;48.916;2.336;2024-01-15T05:10:26;20.27;;;13.63;;
53072;SDS011;38955;48.916;2.336;2024-01-15T05:12:28;20.13;;;12.52;;
53072;SDS011;38955;48.916;2.336;2024-01-15T05:14:30;18.73;;;12.18;;
53072;SDS011;38955;48.916;2.336;2024-01-15T05:16:32;19.83;;;13.60;;
53072;SDS011;38955;48.916;2.336;2024-01-15T05:18:35;14.90;;;11.73;;
53072;SDS011;38955;48.916;2.336;2024-01-15T05:20:38;19.00;;;13.32;;
53072;SDS011;38955;48.916;2.336;2024-01-15T05:22:40;19.50;;;13.23;;
53072;SDS011;38955;48.916;2.336;2024-01-15T05:24:44;18.70;;;13.05;;
53072;SDS011;38955;48.916;2.336;2024-01-15T05:26:46;18.73;;;12.73;;
53072;SDS011;38955;48.916;2.336;2024-01-15T05:28:48;19.77;;;12.77;;
53072;SDS011;38955;48.916;2.336;2024-01-15T05:30:50;20.73;;;13.75;;
53072;SDS011;38955;48.916;2.336;2024-01-15T05:32:53;20.02;;;14.05;;
53072;SDS011;38955;48.916;2.336;2024-01-15T05:34:55;16.98;;;12.18;;
53072;SDS011;38955;48.916;2.336;2024-01-15T05:36:57;18.33;;;12.60;;
53072;SDS011;38955;48.916;2.336;2024-01-15T05:39:00;18.13;;;13.27;;
53072;SDS011;38955;48.916;2.336;2024-01-15T05:41:04;19.80;;;12.75;;
53072;SDS011;38955;48.916;2.336;2024-01-15T05:43:06;19.50;;;12.98;;
53072;SDS011;38955;48.916;2.336;2024-01-15T05:45:09;19.08;;;13.88;;
53072;SDS011;38955;48.916;2.336;2024-01-15T05:47:11;20.60;;;14.27;;
53072;SDS011;38955;48.916;2.336;2024-01-15T05:49:14;18.67;;;12.65;;
53072;SDS011;38955;48.916;2.336;2024-01-15T05:51:17;18.63;;;13.00;;
53072;SDS011;38955;48.916;2.336;2024-01-15T05:53:19;17.30;;;12.02;;
53072;SDS011;38955;48.916;2.336;2024-01-15T05:55:21;20.20;;;13.80;;
53072;SDS011;38955;48.916;2.336;2024-01-15T05:57:24;18.85;;;12.95;;
53072;SDS011;38955;48.916;2.336;2024-01-15T05:59:26;18.55;;;13.48;;
53072;SDS011;38955;48.916;2.336;2024-01-15T06:01:33;15.60;;;11.63;;
53072;SDS011;38955;48.916;2.336;2024-01-15T06:03:36;18.27;;;11.90;;
53072;SDS011;38955;48.916;2.336;2024-01-15T06:05:38;18.50;;;12.95;;
53072;SDS011;38955;48.916;2.336;2024-01-15T06:07:41;19.17;;;12.63;;
53072;SDS011;38955;48.916;2.336;2024-01-15T06:09:43;18.55;;;12.68;;
53072;SDS011;38955;48.916;2.336;2024-01-15T06:11:45;16.13;;;11.48;;
53072;SDS011;38955;48.916;2.336;2024-01-15T06:13:49;17.60;;;12.18;;
53072;SDS011;38955;48.916;2.336;2024-01-15T06:15:51;18.60;;;13.30;;
53072;SDS011;38955;48.916;2.336;2024-01-15T06:17:53;15.27;;;11.23;;
53072;SDS011;38955;48.916;2.336;2024-01-15T06:19:55;16.83;;;11.60;;
53072;SDS011;38955;48.916;2.336;2024-01-15T06:21:58;19.40;;;12.48;;
53072;SDS011;38955;48.916;2.336;2024-01-15T06:24:01;17.13;;;11.88;;
53072;SDS011;38955;48.916;2.336;2024-01-15T06:26:04;16.38;;;12.45;;
53072;SDS011;38955;48.916;2.336;2024-01-15T06:28:06;15.45;;;10.88;;
53072;SDS011;38955;48.916;2.336;2024-01-15T06:30:10;17.25;;;11.52;;
53072;SDS011;38955;48.916;2.336;2024-01-15T06:32:14;17.25;;;11.63;;
53072;SDS011;38955;48.916;2.336;2024-01-15T06:34:19;17.52;;;12.70;;
53072;SDS011;38955;48.916;2.336;2024-01-15T06:36:21;14.55;;;9.85;;
53072;SDS011;38955;48.916;2.336;2024-01-15T06:38:23;17.45;;;12.00;;
53072;SDS011;38955;48.916;2.336;2024-01-15T06:40:26;16.85;;;12.23;;
53072;SDS011;38955;48.916;2.336;2024-01-15T06:42:28;18.55;;;12.27;;
53072;SDS011;38955;48.916;2.336;2024-01-15T06:44:30;18.77;;;12.25;;
53072;SDS011;38955;48.916;2.336;2024-01-15T06:46:34;18.02;;;12.45;;
53072;SDS011;38955;48.916;2.336;2024-01-15T06:48:36;13.27;;;9.60;;
53072;SDS011;38955;48.916;2.336;2024-01-15T06:50:41;17.95;;;12.82;;
53072;SDS011;38955;48.916;2.336;2024-01-15T06:52:45;17.13;;;12.43;;
53072;SDS011;38955;48.916;2.336;2024-01-15T06:54:47;20.33;;;13.48;;
53072;SDS011;38955;48.916;2.336;2024-01-15T06:56:49;16.42;;;11.63;;
53072;SDS011;38955;48.916;2.336;2024-01-15T06:58:52;19.85;;;12.77;;
53072;SDS011;38955;48.916;2.336;2024-01-15T07:00:55;18.30;;;12.43;;
53072;SDS011;38955;48.916;2.336;2024-01-15T07:02:58;18.45;;;12.82;;
53072;SDS011;38955;48.916;2.336;2024-01-15T07:05:03;17.75;;;12.70;;
53072;SDS011;38955;48.916;2.336;2024-01-15T07:07:09;18.10;;;12.52;;
53072;SDS011;38955;48.916;2.336;2024-01-15T07:09:13;18.17;;;12.65;;
53072;SDS011;38955;48.916;2.336;2024-01-15T07:11:15;17.65;;;12.80;;
53072;SDS011;38955;48.916;2.336;2024-01-15T07:13:18;19.30;;;13.30;;
53072;SDS011;38955;48.916;2.336;2024-01-15T07:15:20;21.25;;;13.68;;
53072;SDS011;38955;48.916;2.336;2024-01-15T07:17:22;19.88;;;13.88;;
53072;SDS011;38955;48.916;2.336;2024-01-15T07:19:25;19.63;;;13.60;;
53072;SDS011;38955;48.916;2.336;2024-01-15T07:21:28;18.67;;;12.75;;
53072;SDS011;38955;48.916;2.336;2024-01-15T07:23:31;17.15;;;12.30;;
53072;SDS011;38955;48.916;2.336;2024-01-15T07:25:35;18.30;;;13.13;;
53072;SDS011;38955;48.916;2.336;2024-01-15T07:27:38;17.40;;;12.75;;
53072;SDS011;38955;48.916;2.336;2024-01-15T07:29:40;18.38;;;12.68;;
53072;SDS011;38955;48.916;2.336;2024-01-15T07:31:47;24.25;;;14.90;;
53072;SDS011;38955;48.916;2.336;2024-01-15T07:33:50;22.15;;;14.45;;
53072;SDS011;38955;48.916;2.336;2024-01-15T07:35:54;21.65;;;14.25;;
53072;SDS011;38955;48.916;2.336;2024-01-15T07:37:57;25.40;;;14.70;;
53072;SDS011;38955;48.916;2.336;2024-01-15T07:40:00;20.35;;;13.80;;
53072;SDS011;38955;48.916;2.336;2024-01-15T07:42:02;21.73;;;14.55;;
53072;SDS011;38955;48.916;2.336;2024-01-15T07:44:05;23.33;;;13.98;;
53072;SDS011;38955;48.916;2.336;2024-01-15T07:46:07;20.65;;;13.90;;
53072;SDS011;38955;48.916;2.336;2024-01-15T07:48:09;20.25;;;14.70;;
53072;SDS011;38955;48.916;2.336;2024-01-15T07:50:12;22.70;;;15.35;;
53072;SDS011;38955;48.916;2.336;2024-01-15T07:52:15;21.38;;;14.00;;
53072;SDS011;38955;48.916;2.336;2024-01-15T07:54:18;19.30;;;13.57;;
53072;SDS011;38955;48.916;2.336;2024-01-15T07:56:20;22.85;;;14.48;;
53072;SDS011;38955;48.916;2.336;2024-01-15T07:58:22;21.30;;;14.38;;
53072;SDS011;38955;48.916;2.336;2024-01-15T08:00:24;20.30;;;14.18;;
53072;SDS011;38955;48.916;2.336;2024-01-15T08:02:27;24.58;;;15.50;;
53072;SDS011;38955;48.916;2.336;2024-01-15T08:04:29;19.50;;;14.40;;
53072;SDS011;38955;48.916;2.336;2024-01-15T08:06:32;19.27;;;12.95;;
53072;SDS011;38955;48.916;2.336;2024-01-15T08:08:36;25.65;;;13.38;;
53072;SDS011;38955;48.916;2.336;2024-01-15T08:10:38;25.00;;;14.52;;
53072;SDS011;38955;48.916;2.336;2024-01-15T08:12:41;24.02;;;15.27;;
53072;SDS011;38955;48.916;2.336;2024-01-15T08:14:43;26.48;;;15.55;;
53072;SDS011;38955;48.916;2.336;2024-01-15T08:16:45;19.38;;;14.02;;
53072;SDS011;38955;48.916;2.336;2024-01-15T08:18:47;21.92;;;14.38;;
53072;SDS011;38955;48.916;2.336;2024-01-15T08:20:49;27.52;;;15.45;;
53072;SDS011;38955;48.916;2.336;2024-01-15T08:22:53;25.75;;;14.77;;
53072;SDS011;38955;48.916;2.336;2024-01-15T08:24:56;20.92;;;14.23;;
53072;SDS011;38955;48.916;2.336;2024-01-15T08:26:58;19.30;;;12.93;;
53072;SDS011;38955;48.916;2.336;2024-01-15T08:29:00;21.80;;;13.93;;
53072;SDS011;38955;48.916;2.336;2024-01-15T08:31:03;24.15;;;15.15;;
53072;SDS011;38955;48.916;2.336;2024-01-15T08:33:05;24.48;;;15.18;;
53072;SDS011;38955;48.916;2.336;2024-01-15T08:35:19;21.65;;;13.43;;
53072;SDS011;38955;48.916;2.336;2024-01-15T08:37:24;20.27;;;13.10;;
53072;SDS011;38955;48.916;2.336;2024-01-15T08:39:26;21.30;;;14.63;;
53072;SDS011;38955;48.916;2.336;2024-01-15T08:41:33;22.52;;;14.55;;
53072;SDS011;38955;48.916;2.336;2024-01-15T08:43:36;24.42;;;14.82;;
53072;SDS011;38955;48.916;2.336;2024-01-15T08:45:38;26.80;;;16.00;;
53072;SDS011;38955;48.916;2.336;2024-01-15T08:47:40;21.77;;;14.02;;
53072;SDS011;38955;48.916;2.336;2024-01-15T08:49:43;22.20;;;14.50;;
53072;SDS011;38955;48.916;2.336;2024-01-15T08:51:47;23.77;;;14.75;;
53072;SDS011;38955;48.916;2.336;2024-01-15T08:53:49;23.63;;;14.90;;
53072;SDS011;38955;48.916;2.336;2024-01-15T08:55:51;20.00;;;13.15;;
53072;SDS011;38955;48.916;2.336;2024-01-15T08:57:55;20.65;;;13.30;;
53072;SDS011;38955;48.916;2.336;2024-01-15T08:59:57;19.67;;;14.15;;
53072;SDS011;38955;48.916;2.336;2024-01-15T09:02:00;24.02;;;14.27;;
53072;SDS011;38955;48.916;2.336;2024-01-15T09:04:03;19.58;;;13.18;;
53072;SDS011;38955;48.916;2.336;2024-01-15T09:06:05;24.95;;;13.80;;
53072;SDS011;38955;48.916;2.336;2024-01-15T09:08:08;21.77;;;14.07;;
53072;SDS011;38955;48.916;2.336;2024-01-15T09:10:10;19.73;;;13.70;;
53072;SDS011;38955;48.916;2.336;2024-01-15T09:12:12;24.58;;;13.70;;
53072;SDS011;38955;48.916;2.336;2024-01-15T09:16:36;21.77;;;12.38;;
53072;SDS011;38955;48.916;2.336;2024-01-15T09:18:39;19.63;;;11.70;;
53072;SDS011;38955;48.916;2.336;2024-01-15T09:20:43;16.67;;;11.27;;
53072;SDS011;38955;48.916;2.336;2024-01-15T09:22:45;22.17;;;10.43;;
53072;SDS011;38955;48.916;2.336;2024-01-15T09:24:47;21.80;;;12.35;;
53072;SDS011;38955;48.916;2.336;2024-01-15T09:26:49;20.40;;;10.82;;
53072;SDS011;38955;48.916;2.336;2024-01-15T09:28:54;19.83;;;11.43;;
53072;SDS011;38955;48.916;2.336;2024-01-15T09:30:58;20.88;;;12.13;;
53072;SDS011;38955;48.916;2.336;2024-01-15T09:33:00;15.15;;;10.82;;
53072;SDS011;38955;48.916;2.336;2024-01-15T09:35:02;17.40;;;10.43;;
53072;SDS011;38955;48.916;2.336;2024-01-15T09:37:05;15.32;;;10.70;;
53072;SDS011;38955;48.916;2.336;2024-01-15T09:39:07;18.20;;;11.68;;
53072;SDS011;38955;48.916;2.336;2024-01-15T09:41:09;18.10;;;10.77;;
53072;SDS011;38955;48.916;2.336;2024-01-15T09:43:11;15.55;;;9.50;;
53072;SDS011;38955;48.916;2.336;2024-01-15T09:45:15;20.80;;;10.70;;
53072;SDS011;38955;48.916;2.336;2024-01-15T09:47:19;18.48;;;10.80;;
53072;SDS011;38955;48.916;2.336;2024-01-15T09:49:23;18.83;;;10.73;;
53072;SDS011;38955;48.916;2.336;2024-01-15T09:51:26;19.60;;;11.25;;
53072;SDS011;38955;48.916;2.336;2024-01-15T09:53:32;19.95;;;10.73;;
53072;SDS011;38955;48.916;2.336;2024-01-15T09:55:35;16.02;;;9.30;;
53072;SDS011;38955;48.916;2.336;2024-01-15T09:57:37;14.82;;;9.40;;
53072;SDS011;38955;48.916;2.336;2024-01-15T09:59:41;14.57;;;9.25;;
53072;SDS011;38955;48.916;2.336;2024-01-15T10:01:46;14.25;;;8.93;;
53072;SDS011;38955;48.916;2.336;2024-01-15T10:03:53;14.07;;;9.57;;
53072;SDS011;38955;48.916;2.336;2024-01-15T10:05:57;13.23;;;9.05;;
53072;SDS011;38955;48.916;2.336;2024-01-15T10:08:01;15.88;;;8.63;;
53072;SDS011;38955;48.916;2.336;2024-01-15T10:10:04;12.80;;;7.57;;
53072;SDS011;38955;48.916;2.336;2024-01-15T10:12:09;13.07;;;8.00;;
53072;SDS011;38955;48.916;2.336;2024-01-15T10:14:12;11.57;;;7.95;;
53072;SDS011;38955;48.916;2.336;2024-01-15T10:16:15;11.93;;;7.70;;
53072;SDS011;38955;48.916;2.336;2024-01-15T10:18:17;13.98;;;8.40;;
53072;SDS011;38955;48.916;2.336;2024-01-15T10:20:20;14.55;;;7.85;;
53072;SDS011;38955;48.916;2.336;2024-01-15T10:22:24;13.75;;;8.05;;
53072;SDS011;38955;48.916;2.336;2024-01-15T10:24:27;10.57;;;7.70;;
53072;SDS011;38955;48.916;2.336;2024-01-15T10:26:30;10.43;;;7.05;;
53072;SDS011;38955;48.916;2.336;2024-01-15T10:28:32;10.48;;;6.93;;
53072;SDS011;38955;48.916;2.336;2024-01-15T10:30:34;11.70;;;7.43;;
53072;SDS011;38955;48.916;2.336;2024-01-15T10:32:36;11.52;;;6.72;;
53072;SDS011;38955;48.916;2.336;2024-01-15T10:34:38;11.40;;;6.97;;
53072;SDS011;38955;48.916;2.336;2024-01-15T10:36:45;8.65;;;5.55;;
53072;SDS011;38955;48.916;2.336;2024-01-15T10:38:49;13.93;;;6.75;;
53072;SDS011;38955;48.916;2.336;2024-01-15T10:40:51;11.30;;;6.95;;
53072;SDS011;38955;48.916;2.336;2024-01-15T10:42:54;13.20;;;6.60;;
53072;SDS011;38955;48.916;2.336;2024-01-15T10:44:57;8.02;;;4.75;;
53072;SDS011;38955;48.916;2.336;2024-01-15T10:46:59;10.40;;;5.47;;
53072;SDS011;38955;48.916;2.336;2024-01-15T10:49:02;12.18;;;5.10;;
53072;SDS011;38955;48.916;2.336;2024-01-15T10:51:05;14.13;;;5.43;;
53072;SDS011;38955;48.916;2.336;2024-01-15T10:53:14;10.27;;;4.05;;
53072;SDS011;38955;48.916;2.336;2024-01-15T10:55:18;10.05;;;3.00;;
53072;SDS011;38955;48.916;2.336;2024-01-15T10:57:21;11.10;;;3.35;;
53072;SDS011;38955;48.916;2.336;2024-01-15T10:59:24;6.93;;;2.67;;
53072;SDS011;38955;48.916;2.336;2024-01-15T11:01:26;5.15;;;2.83;;
53072;SDS011;38955;48.916;2.336;2024-01-15T11:03:32;7.60;;;2.47;;
53072;SDS011;38955;48.916;2.336;2024-01-15T11:05:36;6.95;;;2.50;;
53072;SDS011;38955;48.916;2.336;2024-01-15T11:07:40;8.15;;;2.38;;
53072;SDS011;38955;48.916;2.336;2024-01-15T11:09:44;9.05;;;2.33;;
53072;SDS011;38955;48.916;2.336;2024-01-15T11:11:48;6.55;;;1.77;;
53072;SDS011;38955;48.916;2.336;2024-01-15T11:13:53;3.60;;;1.92;;
53072;SDS011;38955;48.916;2.336;2024-01-15T11:15:56;5.85;;;2.30;;
53072;SDS011;38955;48.916;2.336;2024-01-15T11:18:03;8.38;;;2.15;;
53072;SDS011;38955;48.916;2.336;2024-01-15T11:20:11;9.70;;;2.65;;
53072;SDS011;38955;48.916;2.336;2024-01-15T11:24:51;8.18;;;2.55;;
53072;SDS011;38955;48.916;2.336;2024-01-15T11:26:54;4.43;;;2.33;;
53072;SDS011;38955;48.916;2.336;2024-01-15T11:28:56;6.35;;;2.13;;
53072;SDS011;38955;48.916;2.336;2024-01-15T11:31:04;5.10;;;1.73;;
53072;SDS011;38955;48.916;2.336;2024-01-15T11:33:23;9.20;;;2.33;;
53072;SDS011;38955;48.916;2.336;2024-01-15T11:35:49;9.23;;;2.28;;
53072;SDS011;38955;48.916;2.336;2024-01-15T11:37:58;3.70;;;2.03;;
53072;SDS011;38955;48.916;2.336;2024-01-15T11:40:02;6.60;;;2.40;;
53072;SDS011;38955;48.916;2.336;2024-01-15T11:42:12;4.07;;;2.05;;
53072;SDS011;38955;48.916;2.336;2024-01-15T11:44:15;4.13;;;1.70;;
53072;SDS011;38955;48.916;2.336;2024-01-15T11:46:17;4.90;;;1.90;;
53072;SDS011;38955;48.916;2.336;2024-01-15T11:48:19;6.32;;;1.58;;
53072;SDS011;38955;48.916;2.336;2024-01-15T11:50:23;5.18;;;1.88;;
53072;SDS011;38955;48.916;2.336;2024-01-15T11:52:31;5.88;;;1.83;;
53072;SDS011;38955;48.916;2.336;2024-01-15T11:54:35;3.28;;;1.40;;
53072;SDS011;38955;48.916;2.336;2024-01-15T11:56:42;4.65;;;1.67;;
53072;SDS011;38955;48.916;2.336;2024-01-15T11:58:45;8.25;;;1.80;;
53072;SDS011;38955;48.916;2.336;2024-01-15T12:00:48;5.97;;;1.90;;
53072;SDS011;38955;48.916;2.336;2024-01-15T12:02:54;3.60;;;1.63;;
53072;SDS011;38955;48.916;2.336;2024-01-15T12:04:57;9.30;;;1.90;;
53072;SDS011;38955;48.916;2.336;2024-01-15T12:06:59;3.72;;;1.30;;
53072;SDS011;38955;48.916;2.336;2024-01-15T12:09:06;2.17;;;1.15;;